sensor_id;sensor_type;location;lat;lon;timestamp;P1;durP1;ratioP1;P2;durP2;ratioP2
52248;SDS011;38541;48.130;8.378;2023-01-26T00:01:06;12.43;;;8.77;;
52248;SDS011;38541;48.130;8.378;2023-01-26T00:03:34;15.38;;;9.20;;
52248;SDS011;38541;48.130;8.378;2023-01-26T00:06:02;14.70;;;9.95;;
52248;SDS011;38541;48.130;8.378;2023-01-26T00:08:35;13.18;;;8.88;;
52248;SDS011;38541;48.130;8.378;2023-01-26T00:11:03;11.38;;;8.23;;
52248;SDS011;38541;48.130;8.378;2023-01-26T00:13:31;14.52;;;9.15;;
52248;SDS011;38541;48.130;8.378;2023-01-26T00:15:58;15.20;;;9.02;;
52248;SDS011;38541;48.130;8.378;2023-01-26T00:18:25;11.90;;;7.88;;
52248;SDS011;38541;48.130;8.378;2023-01-26T00:20:55;11.63;;;8.40;;
52248;SDS011;38541;48.130;8.378;2023-01-26T00:23:23;11.25;;;8.50;;
52248;SDS011;38541;48.130;8.378;2023-01-26T00:25:50;11.65;;;8.50;;
52248;SDS011;38541;48.130;8.378;2023-01-26T00:28:16;12.80;;;8.50;;
52248;SDS011;38541;48.130;8.378;2023-01-26T00:30:43;11.05;;;7.10;;
52248;SDS011;38541;48.130;8.378;2023-01-26T00:33:10;15.80;;;9.05;;
52248;SDS011;38541;48.130;8.378;2023-01-26T00:35:36;13.15;;;8.02;;
52248;SDS011;38541;48.130;8.378;2023-01-26T00:38:03;11.40;;;7.97;;
52248;SDS011;38541;48.130;8.378;2023-01-26T00:40:30;12.02;;;7.95;;
52248;SDS011;38541;48.130;8.378;2023-01-26T00:42:56;10.60;;;7.63;;
52248;SDS011;38541;48.130;8.378;2023-01-26T00:45:24;8.90;;;7.18;;
52248;SDS011;38541;48.130;8.378;2023-01-26T00:47:50;10.05;;;7.63;;
52248;SDS011;38541;48.130;8.378;2023-01-26T00:50:17;15.70;;;8.57;;
52248;SDS011;38541;48.130;8.378;2023-01-26T00:52:43;11.30;;;8.30;;
52248;SDS011;38541;48.130;8.378;2023-01-26T00:55:10;11.75;;;7.88;;
52248;SDS011;38541;48.130;8.378;2023-01-26T00:57:39;11.38;;;8.27;;
52248;SDS011;38541;48.130;8.378;2023-01-26T01:00:06;13.60;;;8.50;;
52248;SDS011;38541;48.130;8.378;2023-01-26T01:02:34;10.57;;;7.30;;
52248;SDS011;38541;48.130;8.378;2023-01-26T01:05:01;10.70;;;8.18;;
52248;SDS011;38541;48.130;8.378;2023-01-26T01:07:27;11.57;;;8.13;;
52248;SDS011;38541;48.130;8.378;2023-01-26T01:09:54;11.88;;;8.30;;
52248;SDS011;38541;48.130;8.378;2023-01-26T01:12:20;10.57;;;7.95;;
52248;SDS011;38541;48.130;8.378;2023-01-26T01:14:46;10.40;;;7.03;;
52248;SDS011;38541;48.130;8.378;2023-01-26T01:17:13;9.43;;;7.53;;
52248;SDS011;38541;48.130;8.378;2023-01-26T01:19:39;10.43;;;8.07;;
52248;SDS011;38541;48.130;8.378;2023-01-26T01:22:06;9.88;;;6.88;;
52248;SDS011;38541;48.130;8.378;2023-01-26T01:24:32;11.93;;;7.80;;
52248;SDS011;38541;48.130;8.378;2023-01-26T01:27:02;9.38;;;7.40;;
52248;SDS011;38541;48.130;8.378;2023-01-26T01:29:29;9.90;;;7.30;;
52248;SDS011;38541;48.130;8.378;2023-01-26T01:31:56;12.23;;;7.88;;
52248;SDS011;38541;48.130;8.378;2023-01-26T01:34:23;10.23;;;8.00;;
52248;SDS011;38541;48.130;8.378;2023-01-26T01:36:49;11.02;;;8.27;;
52248;SDS011;38541;48.130;8.378;2023-01-26T01:39:16;9.45;;;6.90;;
52248;SDS011;38541;48.130;8.378;2023-01-26T01:44:18;10.15;;;7.28;;
52248;SDS011;38541;48.130;8.378;2023-01-26T01:46:53;9.35;;;6.82;;
52248;SDS011;38541;48.130;8.378;2023-01-26T01:49:31;8.25;;;5.65;;
52248;SDS011;38541;48.130;8.378;2023-01-26T01:52:08;9.32;;;7.25;;
52248;SDS011;38541;48.130;8.378;2023-01-26T01:54:42;9.90;;;6.47;;
52248;SDS011;38541;48.130;8.378;2023-01-26T01:57:13;10.07;;;7.20;;
52248;SDS011;38541;48.130;8.378;2023-01-26T01:59:50;8.85;;;7.95;;
52248;SDS011;38541;48.130;8.378;2023-01-26T02:02:38;9.27;;;6.82;;
52248;SDS011;38541;48.130;8.378;2023-01-26T02:05:21;12.18;;;7.20;;
52248;SDS011;38541;48.130;8.378;2023-01-26T02:07:55;8.85;;;6.97;;
52248;SDS011;38541;48.130;8.378;2023-01-26T02:10:22;8.55;;;5.97;;
52248;SDS011;38541;48.130;8.378;2023-01-26T02:12:50;8.02;;;6.25;;
52248;SDS011;38541;48.130;8.378;2023-01-26T02:15:22;9.32;;;6.38;;
52248;SDS011;38541;48.130;8.378;2023-01-26T02:17:52;10.30;;;7.75;;
52248;SDS011;38541;48.130;8.378;2023-01-26T02:20:26;8.90;;;6.18;;
52248;SDS011;38541;48.130;8.378;2023-01-26T02:26:15;9.93;;;7.20;;
52248;SDS011;38541;48.130;8.378;2023-01-26T02:28:44;7.88;;;6.18;;
52248;SDS011;38541;48.130;8.378;2023-01-26T02:31:12;8.48;;;6.15;;
52248;SDS011;38541;48.130;8.378;2023-01-26T02:33:40;8.63;;;6.57;;
52248;SDS011;38541;48.130;8.378;2023-01-26T02:36:15;8.60;;;6.50;;
52248;SDS011;38541;48.130;8.378;2023-01-26T02:41:16;8.90;;;6.70;;
52248;SDS011;38541;48.130;8.378;2023-01-26T02:44:03;9.25;;;6.47;;
52248;SDS011;38541;48.130;8.378;2023-01-26T02:46:33;9.80;;;6.82;;
52248;SDS011;38541;48.130;8.378;2023-01-26T02:49:01;9.88;;;7.03;;
52248;SDS011;38541;48.130;8.378;2023-01-26T02:51:46;9.32;;;6.57;;
52248;SDS011;38541;48.130;8.378;2023-01-26T02:54:13;8.30;;;7.10;;
52248;SDS011;38541;48.130;8.378;2023-01-26T02:57:01;8.15;;;5.82;;
52248;SDS011;38541;48.130;8.378;2023-01-26T02:59:28;9.02;;;6.97;;
52248;SDS011;38541;48.130;8.378;2023-01-26T03:01:54;9.13;;;7.20;;
52248;SDS011;38541;48.130;8.378;2023-01-26T03:04:23;8.45;;;6.00;;
52248;SDS011;38541;48.130;8.378;2023-01-26T03:06:50;11.05;;;7.32;;
52248;SDS011;38541;48.130;8.378;2023-01-26T03:09:17;8.95;;;6.78;;
52248;SDS011;38541;48.130;8.378;2023-01-26T03:11:43;11.50;;;6.82;;
52248;SDS011;38541;48.130;8.378;2023-01-26T03:14:10;10.20;;;7.10;;
52248;SDS011;38541;48.130;8.378;2023-01-26T03:16:38;8.30;;;6.68;;
52248;SDS011;38541;48.130;8.378;2023-01-26T03:19:07;9.50;;;7.32;;
52248;SDS011;38541;48.130;8.378;2023-01-26T03:21:35;14.18;;;9.05;;
52248;SDS011;38541;48.130;8.378;2023-01-26T03:24:21;13.77;;;8.82;;
52248;SDS011;38541;48.130;8.378;2023-01-26T03:27:08;9.68;;;6.53;;
52248;SDS011;38541;48.130;8.378;2023-01-26T03:29:57;9.48;;;6.47;;
52248;SDS011;38541;48.130;8.378;2023-01-26T03:32:24;10.57;;;7.93;;
52248;SDS011;38541;48.130;8.378;2023-01-26T03:34:52;15.82;;;9.30;;
52248;SDS011;38541;48.130;8.378;2023-01-26T03:37:18;19.67;;;11.82;;
52248;SDS011;38541;48.130;8.378;2023-01-26T03:40:02;13.07;;;8.20;;
52248;SDS011;38541;48.130;8.378;2023-01-26T03:42:49;11.18;;;8.23;;
52248;SDS011;38541;48.130;8.378;2023-01-26T03:45:34;10.75;;;7.57;;
52248;SDS011;38541;48.130;8.378;2023-01-26T03:48:22;10.32;;;7.18;;
52248;SDS011;38541;48.130;8.378;2023-01-26T03:51:07;12.55;;;7.82;;
52248;SDS011;38541;48.130;8.378;2023-01-26T03:53:54;10.68;;;7.88;;
52248;SDS011;38541;48.130;8.378;2023-01-26T03:56:39;11.45;;;8.57;;
52248;SDS011;38541;48.130;8.378;2023-01-26T03:59:11;13.23;;;8.20;;
52248;SDS011;38541;48.130;8.378;2023-01-26T04:01:43;11.38;;;8.27;;
52248;SDS011;38541;48.130;8.378;2023-01-26T04:04:31;9.77;;;6.93;;
52248;SDS011;38541;48.130;8.378;2023-01-26T04:07:20;13.02;;;8.52;;
52248;SDS011;38541;48.130;8.378;2023-01-26T04:10:05;10.02;;;7.25;;
52248;SDS011;38541;48.130;8.378;2023-01-26T04:12:32;9.90;;;7.32;;
52248;SDS011;38541;48.130;8.378;2023-01-26T04:15:16;11.20;;;7.03;;
52248;SDS011;38541;48.130;8.378;2023-01-26T04:18:05;11.57;;;8.63;;
52248;SDS011;38541;48.130;8.378;2023-01-26T04:20:52;10.18;;;7.85;;
52248;SDS011;38541;48.130;8.378;2023-01-26T04:23:40;11.40;;;7.45;;
52248;SDS011;38541;48.130;8.378;2023-01-26T04:26:06;9.77;;;6.72;;
52248;SDS011;38541;48.130;8.378;2023-01-26T04:28:33;9.70;;;6.75;;
52248;SDS011;38541;48.130;8.378;2023-01-26T04:31:01;10.07;;;6.78;;
52248;SDS011;38541;48.130;8.378;2023-01-26T04:33:33;9.63;;;6.88;;
52248;SDS011;38541;48.130;8.378;2023-01-26T04:36:03;8.50;;;5.75;;
52248;SDS011;38541;48.130;8.378;2023-01-26T04:38:32;10.32;;;7.00;;
52248;SDS011;38541;48.130;8.378;2023-01-26T04:40:58;9.85;;;7.07;;
52248;SDS011;38541;48.130;8.378;2023-01-26T04:43:25;12.20;;;7.47;;
52248;SDS011;38541;48.130;8.378;2023-01-26T04:45:59;12.43;;;9.30;;
52248;SDS011;38541;48.130;8.378;2023-01-26T04:48:28;11.15;;;8.48;;
52248;SDS011;38541;48.130;8.378;2023-01-26T04:50:56;12.20;;;8.40;;
52248;SDS011;38541;48.130;8.378;2023-01-26T04:53:26;11.15;;;7.85;;
52248;SDS011;38541;48.130;8.378;2023-01-26T04:55:54;10.32;;;7.47;;
52248;SDS011;38541;48.130;8.378;2023-01-26T04:58:20;11.00;;;7.65;;
52248;SDS011;38541;48.130;8.378;2023-01-26T05:00:55;11.20;;;6.85;;
52248;SDS011;38541;48.130;8.378;2023-01-26T05:03:24;12.70;;;8.27;;
52248;SDS011;38541;48.130;8.378;2023-01-26T05:05:52;11.05;;;7.70;;
52248;SDS011;38541;48.130;8.378;2023-01-26T05:08:22;12.15;;;8.20;;
52248;SDS011;38541;48.130;8.378;2023-01-26T05:10:49;11.18;;;8.65;;
52248;SDS011;38541;48.130;8.378;2023-01-26T05:13:43;10.80;;;7.47;;
52248;SDS011;38541;48.130;8.378;2023-01-26T05:16:21;10.65;;;6.63;;
52248;SDS011;38541;48.130;8.378;2023-01-26T05:19:17;9.57;;;6.80;;
52248;SDS011;38541;48.130;8.378;2023-01-26T05:21:49;9.90;;;6.88;;
52248;SDS011;38541;48.130;8.378;2023-01-26T05:24:16;8.85;;;6.55;;
52248;SDS011;38541;48.130;8.378;2023-01-26T05:27:01;9.43;;;6.68;;
52248;SDS011;38541;48.130;8.378;2023-01-26T05:29:52;9.15;;;6.28;;
52248;SDS011;38541;48.130;8.378;2023-01-26T05:32:24;10.07;;;6.72;;
52248;SDS011;38541;48.130;8.378;2023-01-26T05:34:52;10.02;;;7.15;;
52248;SDS011;38541;48.130;8.378;2023-01-26T05:37:18;8.80;;;7.38;;
52248;SDS011;38541;48.130;8.378;2023-01-26T05:39:45;11.88;;;7.25;;
52248;SDS011;38541;48.130;8.378;2023-01-26T05:42:12;9.45;;;6.45;;
52248;SDS011;38541;48.130;8.378;2023-01-26T05:44:57;8.90;;;6.50;;
52248;SDS011;38541;48.130;8.378;2023-01-26T05:47:24;11.48;;;7.00;;
52248;SDS011;38541;48.130;8.378;2023-01-26T05:49:50;10.68;;;7.40;;
52248;SDS011;38541;48.130;8.378;2023-01-26T05:52:23;9.90;;;7.10;;
52248;SDS011;38541;48.130;8.378;2023-01-26T05:54:49;7.72;;;6.40;;
52248;SDS011;38541;48.130;8.378;2023-01-26T05:57:16;8.05;;;5.65;;
52248;SDS011;38541;48.130;8.378;2023-01-26T05:59:50;9.07;;;6.15;;
52248;SDS011;38541;48.130;8.378;2023-01-26T06:02:17;8.20;;;6.57;;
52248;SDS011;38541;48.130;8.378;2023-01-26T06:04:44;9.85;;;7.32;;
52248;SDS011;38541;48.130;8.378;2023-01-26T06:07:10;10.65;;;7.15;;
52248;SDS011;38541;48.130;8.378;2023-01-26T06:09:46;8.18;;;6.00;;
52248;SDS011;38541;48.130;8.378;2023-01-26T06:12:31;7.28;;;5.57;;
52248;SDS011;38541;48.130;8.378;2023-01-26T06:15:08;6.68;;;5.22;;
52248;SDS011;38541;48.130;8.378;2023-01-26T06:17:40;7.38;;;5.60;;
52248;SDS011;38541;48.130;8.378;2023-01-26T06:20:11;8.02;;;5.70;;
52248;SDS011;38541;48.130;8.378;2023-01-26T06:22:43;7.50;;;5.00;;
52248;SDS011;38541;48.130;8.378;2023-01-26T06:25:09;7.72;;;5.43;;
52248;SDS011;38541;48.130;8.378;2023-01-26T06:27:35;7.15;;;5.20;;
52248;SDS011;38541;48.130;8.378;2023-01-26T06:30:13;7.70;;;5.30;;
52248;SDS011;38541;48.130;8.378;2023-01-26T06:32:40;11.75;;;6.70;;
52248;SDS011;38541;48.130;8.378;2023-01-26T06:35:07;9.00;;;6.70;;
52248;SDS011;38541;48.130;8.378;2023-01-26T06:37:34;10.65;;;7.05;;
52248;SDS011;38541;48.130;8.378;2023-01-26T06:40:01;10.70;;;7.28;;
52248;SDS011;38541;48.130;8.378;2023-01-26T06:42:27;11.77;;;7.43;;
52248;SDS011;38541;48.130;8.378;2023-01-26T06:44:54;15.50;;;7.43;;
52248;SDS011;38541;48.130;8.378;2023-01-26T06:47:23;11.38;;;6.97;;
52248;SDS011;38541;48.130;8.378;2023-01-26T06:49:49;11.15;;;7.63;;
52248;SDS011;38541;48.130;8.378;2023-01-26T06:52:26;9.75;;;6.95;;
52248;SDS011;38541;48.130;8.378;2023-01-26T06:55:01;8.35;;;6.72;;
52248;SDS011;38541;48.130;8.378;2023-01-26T06:58:04;7.88;;;5.82;;
52248;SDS011;38541;48.130;8.378;2023-01-26T07:00:49;7.78;;;6.80;;
52248;SDS011;38541;48.130;8.378;2023-01-26T07:03:27;6.60;;;5.22;;
52248;SDS011;38541;48.130;8.378;2023-01-26T07:05:53;6.75;;;4.95;;
52248;SDS011;38541;48.130;8.378;2023-01-26T07:08:19;7.88;;;6.30;;
52248;SDS011;38541;48.130;8.378;2023-01-26T07:10:46;12.43;;;10.25;;
52248;SDS011;38541;48.130;8.378;2023-01-26T07:13:14;8.40;;;7.30;;
52248;SDS011;38541;48.130;8.378;2023-01-26T07:15:41;10.05;;;8.02;;
52248;SDS011;38541;48.130;8.378;2023-01-26T07:18:08;11.13;;;8.35;;
52248;SDS011;38541;48.130;8.378;2023-01-26T07:20:35;6.85;;;5.30;;
52248;SDS011;38541;48.130;8.378;2023-01-26T07:23:02;5.05;;;4.47;;
52248;SDS011;38541;48.130;8.378;2023-01-26T07:25:28;4.70;;;4.05;;
52248;SDS011;38541;48.130;8.378;2023-01-26T07:27:55;6.00;;;4.63;;
52248;SDS011;38541;48.130;8.378;2023-01-26T07:30:23;7.82;;;6.25;;
52248;SDS011;38541;48.130;8.378;2023-01-26T07:32:49;7.20;;;5.68;;
52248;SDS011;38541;48.130;8.378;2023-01-26T07:35:16;5.05;;;4.38;;
52248;SDS011;38541;48.130;8.378;2023-01-26T07:37:43;6.85;;;5.47;;
52248;SDS011;38541;48.130;8.378;2023-01-26T07:40:09;5.30;;;4.40;;
52248;SDS011;38541;48.130;8.378;2023-01-26T07:42:37;6.22;;;5.18;;
52248;SDS011;38541;48.130;8.378;2023-01-26T07:45:16;7.03;;;5.93;;
52248;SDS011;38541;48.130;8.378;2023-01-26T07:47:43;7.82;;;5.28;;
52248;SDS011;38541;48.130;8.378;2023-01-26T07:50:10;6.85;;;5.88;;
52248;SDS011;38541;48.130;8.378;2023-01-26T07:52:37;6.82;;;4.88;;
52248;SDS011;38541;48.130;8.378;2023-01-26T07:55:04;5.05;;;4.13;;
52248;SDS011;38541;48.130;8.378;2023-01-26T07:57:30;6.75;;;4.70;;
52248;SDS011;38541;48.130;8.378;2023-01-26T07:59:59;6.95;;;4.70;;
52248;SDS011;38541;48.130;8.378;2023-01-26T08:02:25;6.38;;;4.60;;
52248;SDS011;38541;48.130;8.378;2023-01-26T08:04:52;5.72;;;4.32;;
52248;SDS011;38541;48.130;8.378;2023-01-26T08:07:18;4.10;;;3.70;;
52248;SDS011;38541;48.130;8.378;2023-01-26T08:09:44;4.03;;;3.63;;
52248;SDS011;38541;48.130;8.378;2023-01-26T08:12:11;4.68;;;4.00;;
52248;SDS011;38541;48.130;8.378;2023-01-26T08:14:37;4.53;;;3.53;;
52248;SDS011;38541;48.130;8.378;2023-01-26T08:17:12;4.55;;;4.05;;
52248;SDS011;38541;48.130;8.378;2023-01-26T08:19:38;4.00;;;3.17;;
52248;SDS011;38541;48.130;8.378;2023-01-26T08:22:05;3.55;;;3.22;;
52248;SDS011;38541;48.130;8.378;2023-01-26T08:24:31;3.80;;;2.90;;
52248;SDS011;38541;48.130;8.378;2023-01-26T08:26:58;4.00;;;3.53;;
52248;SDS011;38541;48.130;8.378;2023-01-26T08:29:24;4.25;;;3.22;;
52248;SDS011;38541;48.130;8.378;2023-01-26T08:31:51;4.78;;;3.97;;
52248;SDS011;38541;48.130;8.378;2023-01-26T08:34:18;5.40;;;4.72;;
52248;SDS011;38541;48.130;8.378;2023-01-26T08:36:47;5.45;;;4.13;;
52248;SDS011;38541;48.130;8.378;2023-01-26T08:39:14;6.15;;;4.65;;
52248;SDS011;38541;48.130;8.378;2023-01-26T08:41:40;5.63;;;4.47;;
52248;SDS011;38541;48.130;8.378;2023-01-26T08:44:08;5.07;;;4.25;;
52248;SDS011;38541;48.130;8.378;2023-01-26T08:46:35;4.93;;;3.88;;
52248;SDS011;38541;48.130;8.378;2023-01-26T08:49:02;4.70;;;3.75;;
52248;SDS011;38541;48.130;8.378;2023-01-26T08:51:28;5.00;;;4.10;;
52248;SDS011;38541;48.130;8.378;2023-01-26T08:53:55;4.72;;;3.78;;
52248;SDS011;38541;48.130;8.378;2023-01-26T08:56:21;4.07;;;3.67;;
52248;SDS011;38541;48.130;8.378;2023-01-26T08:58:48;5.75;;;5.05;;
52248;SDS011;38541;48.130;8.378;2023-01-26T09:01:15;5.32;;;3.97;;
52248;SDS011;38541;48.130;8.378;2023-01-26T09:03:42;4.85;;;4.13;;
52248;SDS011;38541;48.130;8.378;2023-01-26T09:06:10;6.97;;;5.40;;
52248;SDS011;38541;48.130;8.378;2023-01-26T09:08:38;5.90;;;4.57;;
52248;SDS011;38541;48.130;8.378;2023-01-26T09:11:05;5.72;;;3.78;;
52248;SDS011;38541;48.130;8.378;2023-01-26T09:13:33;4.97;;;3.38;;
52248;SDS011;38541;48.130;8.378;2023-01-26T09:16:07;4.18;;;3.53;;
52248;SDS011;38541;48.130;8.378;2023-01-26T09:18:38;4.10;;;3.50;;
52248;SDS011;38541;48.130;8.378;2023-01-26T09:21:04;4.43;;;3.58;;
52248;SDS011;38541;48.130;8.378;2023-01-26T09:23:32;3.65;;;3.22;;
52248;SDS011;38541;48.130;8.378;2023-01-26T09:26:00;3.88;;;3.25;;
52248;SDS011;38541;48.130;8.378;2023-01-26T09:28:28;3.45;;;3.13;;
52248;SDS011;38541;48.130;8.378;2023-01-26T09:30:54;4.90;;;3.90;;
52248;SDS011;38541;48.130;8.378;2023-01-26T09:33:21;4.30;;;3.90;;
52248;SDS011;38541;48.130;8.378;2023-01-26T09:35:48;4.45;;;3.67;;
52248;SDS011;38541;48.130;8.378;2023-01-26T09:38:15;5.10;;;3.67;;
52248;SDS011;38541;48.130;8.378;2023-01-26T09:40:47;5.18;;;4.00;;
52248;SDS011;38541;48.130;8.378;2023-01-26T09:46:05;5.22;;;4.63;;
52248;SDS011;38541;48.130;8.378;2023-01-26T09:48:52;5.35;;;4.95;;
52248;SDS011;38541;48.130;8.378;2023-01-26T09:51:51;6.32;;;4.30;;
52248;SDS011;38541;48.130;8.378;2023-01-26T10:00:06;6.57;;;4.63;;
52248;SDS011;38541;48.130;8.378;2023-01-26T10:05:42;5.75;;;4.45;;
52248;SDS011;38541;48.130;8.378;2023-01-26T10:08:34;4.35;;;3.85;;
52248;SDS011;38541;48.130;8.378;2023-01-26T10:11:03;7.78;;;4.80;;
52248;SDS011;38541;48.130;8.378;2023-01-26T10:13:32;6.25;;;4.63;;
52248;SDS011;38541;48.130;8.378;2023-01-26T10:16:00;5.55;;;4.35;;
52248;SDS011;38541;48.130;8.378;2023-01-26T10:18:33;5.43;;;4.40;;
52248;SDS011;38541;48.130;8.378;2023-01-26T10:21:06;5.88;;;4.82;;
52248;SDS011;38541;48.130;8.378;2023-01-26T10:23:35;6.72;;;5.80;;
52248;SDS011;38541;48.130;8.378;2023-01-26T10:26:11;6.70;;;5.25;;
52248;SDS011;38541;48.130;8.378;2023-01-26T10:28:40;7.15;;;4.78;;
52248;SDS011;38541;48.130;8.378;2023-01-26T10:31:14;7.88;;;5.22;;
52248;SDS011;38541;48.130;8.378;2023-01-26T10:36:21;5.80;;;5.15;;
52248;SDS011;38541;48.130;8.378;2023-01-26T10:38:49;6.35;;;4.65;;
52248;SDS011;38541;48.130;8.378;2023-01-26T10:41:21;6.43;;;4.80;;
52248;SDS011;38541;48.130;8.378;2023-01-26T10:43:50;7.57;;;5.32;;
52248;SDS011;38541;48.130;8.378;2023-01-26T10:46:22;5.15;;;4.45;;
52248;SDS011;38541;48.130;8.378;2023-01-26T10:48:51;5.15;;;4.18;;
52248;SDS011;38541;48.130;8.378;2023-01-26T10:51:23;4.43;;;3.83;;
52248;SDS011;38541;48.130;8.378;2023-01-26T10:54:10;5.85;;;4.25;;
52248;SDS011;38541;48.130;8.378;2023-01-26T10:56:44;5.07;;;4.57;;
52248;SDS011;38541;48.130;8.378;2023-01-26T10:59:22;4.88;;;3.88;;
52248;SDS011;38541;48.130;8.378;2023-01-26T11:04:25;3.88;;;3.50;;
52248;SDS011;38541;48.130;8.378;2023-01-26T11:06:52;5.95;;;4.38;;
52248;SDS011;38541;48.130;8.378;2023-01-26T11:09:26;4.65;;;3.97;;
52248;SDS011;38541;48.130;8.378;2023-01-26T11:11:58;5.80;;;4.78;;
52248;SDS011;38541;48.130;8.378;2023-01-26T11:14:25;7.40;;;4.53;;
52248;SDS011;38541;48.130;8.378;2023-01-26T11:20:05;5.60;;;4.90;;
52248;SDS011;38541;48.130;8.378;2023-01-26T11:25:52;5.10;;;4.22;;
52248;SDS011;38541;48.130;8.378;2023-01-26T11:34:27;6.18;;;4.90;;
52248;SDS011;38541;48.130;8.378;2023-01-26T11:40:02;5.45;;;4.40;;
52248;SDS011;38541;48.130;8.378;2023-01-26T11:45:56;5.47;;;4.22;;
52248;SDS011;38541;48.130;8.378;2023-01-26T11:48:37;4.43;;;3.75;;
52248;SDS011;38541;48.130;8.378;2023-01-26T11:51:23;5.43;;;4.45;;
52248;SDS011;38541;48.130;8.378;2023-01-26T11:56:31;4.90;;;4.13;;
52248;SDS011;38541;48.130;8.378;2023-01-26T11:59:23;4.20;;;3.80;;
52248;SDS011;38541;48.130;8.378;2023-01-26T12:01:57;5.68;;;4.82;;
52248;SDS011;38541;48.130;8.378;2023-01-26T12:04:29;4.35;;;3.95;;
52248;SDS011;38541;48.130;8.378;2023-01-26T12:07:10;4.82;;;3.80;;
52248;SDS011;38541;48.130;8.378;2023-01-26T12:09:45;5.55;;;4.20;;
52248;SDS011;38541;48.130;8.378;2023-01-26T12:12:18;5.60;;;4.40;;
52248;SDS011;38541;48.130;8.378;2023-01-26T12:14:53;6.25;;;4.90;;
52248;SDS011;38541;48.130;8.378;2023-01-26T12:17:38;6.43;;;5.35;;
52248;SDS011;38541;48.130;8.378;2023-01-26T12:20:23;6.30;;;4.93;;
52248;SDS011;38541;48.130;8.378;2023-01-26T12:23:02;5.32;;;4.45;;
52248;SDS011;38541;48.130;8.378;2023-01-26T12:25:32;6.50;;;5.13;;
52248;SDS011;38541;48.130;8.378;2023-01-26T12:30:50;5.45;;;4.90;;
52248;SDS011;38541;48.130;8.378;2023-01-26T12:33:24;6.03;;;5.30;;
52248;SDS011;38541;48.130;8.378;2023-01-26T12:39:12;4.90;;;4.45;;
52248;SDS011;38541;48.130;8.378;2023-01-26T12:45:03;5.13;;;4.47;;
52248;SDS011;38541;48.130;8.378;2023-01-26T12:52:59;3.97;;;3.58;;
52248;SDS011;38541;48.130;8.378;2023-01-26T12:55:43;4.25;;;3.85;;
52248;SDS011;38541;48.130;8.378;2023-01-26T12:58:19;5.80;;;4.43;;
52248;SDS011;38541;48.130;8.378;2023-01-26T13:01:35;4.78;;;4.28;;
52248;SDS011;38541;48.130;8.378;2023-01-26T13:03:42;6.35;;;5.15;;
52248;SDS011;38541;48.130;8.378;2023-01-26T13:08:49;5.25;;;4.75;;
52248;SDS011;38541;48.130;8.378;2023-01-26T13:24:45;8.60;;;7.30;;
52248;SDS011;38541;48.130;8.378;2023-01-26T13:27:30;11.02;;;8.45;;
52248;SDS011;38541;48.130;8.378;2023-01-26T13:29:57;7.95;;;6.70;;
52248;SDS011;38541;48.130;8.378;2023-01-26T13:34:57;8.88;;;5.90;;
52248;SDS011;38541;48.130;8.378;2023-01-26T13:37:33;7.20;;;5.65;;
52248;SDS011;38541;48.130;8.378;2023-01-26T13:40:05;6.53;;;5.15;;
52248;SDS011;38541;48.130;8.378;2023-01-26T13:48:49;6.30;;;5.25;;
52248;SDS011;38541;48.130;8.378;2023-01-26T13:51:27;9.30;;;7.05;;
52248;SDS011;38541;48.130;8.378;2023-01-26T13:54:05;7.70;;;6.10;;
52248;SDS011;38541;48.130;8.378;2023-01-26T13:56:37;6.40;;;5.32;;
52248;SDS011;38541;48.130;8.378;2023-01-26T14:01:43;6.00;;;5.38;;
52248;SDS011;38541;48.130;8.378;2023-01-26T14:04:12;8.52;;;6.80;;
52248;SDS011;38541;48.130;8.378;2023-01-26T14:07:05;7.93;;;6.13;;
52248;SDS011;38541;48.130;8.378;2023-01-26T14:09:45;6.88;;;5.72;;
52248;SDS011;38541;48.130;8.378;2023-01-26T14:12:19;8.15;;;5.57;;
52248;SDS011;38541;48.130;8.378;2023-01-26T14:14:51;6.63;;;5.90;;
52248;SDS011;38541;48.130;8.378;2023-01-26T14:17:30;6.43;;;5.70;;
52248;SDS011;38541;48.130;8.378;2023-01-26T14:19:58;7.90;;;6.40;;
52248;SDS011;38541;48.130;8.378;2023-01-26T14:22:26;6.60;;;5.93;;
52248;SDS011;38541;48.130;8.378;2023-01-26T14:24:53;6.95;;;5.97;;
52248;SDS011;38541;48.130;8.378;2023-01-26T14:27:36;7.28;;;6.40;;
52248;SDS011;38541;48.130;8.378;2023-01-26T14:32:48;8.88;;;6.65;;
52248;SDS011;38541;48.130;8.378;2023-01-26T14:35:20;8.35;;;6.93;;
52248;SDS011;38541;48.130;8.378;2023-01-26T14:37:48;7.75;;;6.15;;
52248;SDS011;38541;48.130;8.378;2023-01-26T14:40:21;6.50;;;5.80;;
52248;SDS011;38541;48.130;8.378;2023-01-26T14:42:49;6.45;;;5.28;;
52248;SDS011;38541;48.130;8.378;2023-01-26T14:45:21;5.22;;;4.60;;
52248;SDS011;38541;48.130;8.378;2023-01-26T14:47:57;6.90;;;5.13;;
52248;SDS011;38541;48.130;8.378;2023-01-26T14:50:31;7.85;;;6.70;;
52248;SDS011;38541;48.130;8.378;2023-01-26T14:52:58;6.22;;;5.63;;
52248;SDS011;38541;48.130;8.378;2023-01-26T14:55:31;15.15;;;11.00;;
52248;SDS011;38541;48.130;8.378;2023-01-26T14:58:00;10.65;;;8.38;;
52248;SDS011;38541;48.130;8.378;2023-01-26T15:03:04;9.93;;;7.90;;
52248;SDS011;38541;48.130;8.378;2023-01-26T15:05:46;8.77;;;6.13;;
52248;SDS011;38541;48.130;8.378;2023-01-26T15:08:20;8.02;;;6.53;;
52248;SDS011;38541;48.130;8.378;2023-01-26T15:15:42;7.25;;;6.55;;
52248;SDS011;38541;48.130;8.378;2023-01-26T15:18:20;6.60;;;5.50;;
52248;SDS011;38541;48.130;8.378;2023-01-26T15:23:30;6.90;;;5.90;;
52248;SDS011;38541;48.130;8.378;2023-01-26T15:26:06;9.48;;;5.95;;
52248;SDS011;38541;48.130;8.378;2023-01-26T15:28:34;7.32;;;6.07;;
52248;SDS011;38541;48.130;8.378;2023-01-26T15:31:01;7.05;;;5.65;;
52248;SDS011;38541;48.130;8.378;2023-01-26T15:36:05;6.65;;;5.68;;
52248;SDS011;38541;48.130;8.378;2023-01-26T15:38:45;7.15;;;6.10;;
52248;SDS011;38541;48.130;8.378;2023-01-26T15:41:12;7.35;;;6.40;;
52248;SDS011;38541;48.130;8.378;2023-01-26T15:43:39;8.23;;;6.93;;
52248;SDS011;38541;48.130;8.378;2023-01-26T15:46:06;9.10;;;6.88;;
52248;SDS011;38541;48.130;8.378;2023-01-26T15:48:35;8.50;;;6.55;;
52248;SDS011;38541;48.130;8.378;2023-01-26T15:51:01;8.18;;;6.68;;
52248;SDS011;38541;48.130;8.378;2023-01-26T15:53:28;8.35;;;6.85;;
52248;SDS011;38541;48.130;8.378;2023-01-26T15:55:54;8.80;;;6.88;;
52248;SDS011;38541;48.130;8.378;2023-01-26T15:58:24;8.73;;;7.15;;
52248;SDS011;38541;48.130;8.378;2023-01-26T16:00:51;6.85;;;5.88;;
52248;SDS011;38541;48.130;8.378;2023-01-26T16:03:18;7.10;;;6.18;;
52248;SDS011;38541;48.130;8.378;2023-01-26T16:05:46;6.47;;;5.68;;
52248;SDS011;38541;48.130;8.378;2023-01-26T16:08:13;8.52;;;6.03;;
52248;SDS011;38541;48.130;8.378;2023-01-26T16:10:41;6.38;;;5.72;;
52248;SDS011;38541;48.130;8.378;2023-01-26T16:13:08;7.38;;;5.72;;
52248;SDS011;38541;48.130;8.378;2023-01-26T16:18:13;9.55;;;6.03;;
52248;SDS011;38541;48.130;8.378;2023-01-26T16:20:41;28.58;;;21.92;;
52248;SDS011;38541;48.130;8.378;2023-01-26T16:25:45;10.88;;;7.95;;
52248;SDS011;38541;48.130;8.378;2023-01-26T16:28:12;12.48;;;10.40;;
52248;SDS011;38541;48.130;8.378;2023-01-26T16:30:39;14.45;;;10.55;;
52248;SDS011;38541;48.130;8.378;2023-01-26T16:33:08;16.27;;;12.38;;
52248;SDS011;38541;48.130;8.378;2023-01-26T16:35:37;18.70;;;13.80;;
52248;SDS011;38541;48.130;8.378;2023-01-26T16:38:04;8.48;;;7.55;;
52248;SDS011;38541;48.130;8.378;2023-01-26T16:40:32;8.10;;;6.45;;
52248;SDS011;38541;48.130;8.378;2023-01-26T16:42:59;9.30;;;8.00;;
52248;SDS011;38541;48.130;8.378;2023-01-26T16:45:27;8.25;;;6.78;;
52248;SDS011;38541;48.130;8.378;2023-01-26T16:47:54;7.97;;;6.03;;
52248;SDS011;38541;48.130;8.378;2023-01-26T16:50:22;6.15;;;5.55;;
52248;SDS011;38541;48.130;8.378;2023-01-26T16:52:50;6.20;;;5.20;;
52248;SDS011;38541;48.130;8.378;2023-01-26T16:55:17;8.13;;;6.57;;
52248;SDS011;38541;48.130;8.378;2023-01-26T16:57:45;5.72;;;4.90;;